createdAt,value
2022-12-11T00:01:18.342Z,19.67
2022-12-11T00:03:48.242Z,23.00
2022-12-11T00:06:20.858Z,24.45
2022-12-11T00:08:52.471Z,16.17
2022-12-11T00:11:22.189Z,23.20
2022-12-11T00:13:50.105Z,23.58
2022-12-11T00:16:20.370Z,21.92
2022-12-11T00:18:52.465Z,20.77
2022-12-11T00:21:20.715Z,19.63
2022-12-11T00:23:48.548Z,17.10
2022-12-11T00:26:17.280Z,19.15
2022-12-11T00:28:45.962Z,20.98
2022-12-11T00:31:19.171Z,22.02
2022-12-11T00:33:50.433Z,20.05
2022-12-11T00:36:21.832Z,15.98
2022-12-11T00:38:50.399Z,18.15
2022-12-11T00:41:18.634Z,21.65
2022-12-11T00:43:47.115Z,18.95
2022-12-11T00:46:15.595Z,17.52
2022-12-11T00:48:43.668Z,17.35
2022-12-11T00:51:12.081Z,18.52
2022-12-11T00:53:40.769Z,17.92
2022-12-11T00:56:18.430Z,16.67
2022-12-11T00:58:47.341Z,19.33
2022-12-11T01:01:19.026Z,13.75
2022-12-11T01:03:47.375Z,18.02
2022-12-11T01:06:18.247Z,19.20
2022-12-11T01:08:46.818Z,18.88
2022-12-11T01:11:17.038Z,17.55
2022-12-11T01:13:45.242Z,16.08
2022-12-11T01:16:15.321Z,18.27
2022-12-11T01:18:44.592Z,16.65
2022-12-11T01:21:14.390Z,17.63
2022-12-11T01:23:42.284Z,18.23
2022-12-11T01:26:14.914Z,16.85
2022-12-11T01:28:43.382Z,15.35
2022-12-11T01:31:14.000Z,16.15
2022-12-11T01:33:42.719Z,17.30
2022-12-11T01:36:19.368Z,17.45
2022-12-11T01:38:48.945Z,15.40
2022-12-11T01:41:18.926Z,15.98
2022-12-11T01:44:15.725Z,15.20
2022-12-11T01:46:44.172Z,14.35
2022-12-11T01:49:13.601Z,15.55
2022-12-11T01:52:00.046Z,15.27
2022-12-11T01:54:28.810Z,15.70
2022-12-11T01:57:03.053Z,17.17
2022-12-11T01:59:32.304Z,18.63
2022-12-11T02:02:18.076Z,15.40
2022-12-11T02:04:46.877Z,18.35
2022-12-11T02:07:15.738Z,16.75
2022-12-11T02:09:45.780Z,19.00
2022-12-11T02:12:57.295Z,20.80
2022-12-11T02:15:31.133Z,20.10
2022-12-11T02:18:21.514Z,20.83
2022-12-11T02:20:56.135Z,21.65
2022-12-11T02:23:44.690Z,24.10
2022-12-11T02:26:12.518Z,19.90
2022-12-11T02:28:51.329Z,21.88
2022-12-11T02:31:37.641Z,23.40
2022-12-11T02:34:43.726Z,17.90
2022-12-11T02:37:17.412Z,22.08
2022-12-11T02:39:46.482Z,20.58
2022-12-11T02:42:16.800Z,21.60
2022-12-11T02:44:45.473Z,18.00
2022-12-11T02:47:14.415Z,21.52
2022-12-11T02:49:44.853Z,21.63
2022-12-11T02:52:13.868Z,21.77
2022-12-11T02:54:43.534Z,21.25
2022-12-11T02:57:19.218Z,22.55
2022-12-11T02:59:47.762Z,21.77
2022-12-11T03:02:16.776Z,22.65
2022-12-11T03:04:48.068Z,22.98
2022-12-11T03:07:20.118Z,16.48
2022-12-11T03:09:48.665Z,20.57
2022-12-11T03:12:22.156Z,23.50
2022-12-11T03:14:51.693Z,24.00
2022-12-11T03:17:23.306Z,24.02
2022-12-11T03:20:17.929Z,22.95
2022-12-11T03:23:24.870Z,25.48
2022-12-11T03:26:08.355Z,22.63
2022-12-11T03:28:45.044Z,20.38
2022-12-11T03:31:19.088Z,19.77
2022-12-11T03:33:48.790Z,20.95
2022-12-11T03:36:24.499Z,22.67
2022-12-11T03:38:56.795Z,24.92
2022-12-11T03:41:27.306Z,21.80
2022-12-11T03:43:58.904Z,22.33
2022-12-11T03:46:32.700Z,23.85
2022-12-11T03:49:06.301Z,22.13
2022-12-11T03:51:34.898Z,19.58
2022-12-11T03:54:03.020Z,21.65
2022-12-11T03:56:33.454Z,24.83
2022-12-11T03:59:01.059Z,20.13
2022-12-11T04:01:29.149Z,22.90
2022-12-11T04:03:57.479Z,22.30
2022-12-11T04:06:26.101Z,25.60
2022-12-11T04:08:54.048Z,21.60
2022-12-11T04:11:34.968Z,24.73
2022-12-11T04:14:29.358Z,22.48
2022-12-11T04:16:59.046Z,22.77
2022-12-11T04:19:45.539Z,23.35
2022-12-11T04:22:33.911Z,22.75
2022-12-11T04:25:02.572Z,22.83
2022-12-11T04:27:48.963Z,20.40
2022-12-11T04:30:20.655Z,20.15
2022-12-11T04:32:49.263Z,22.35
2022-12-11T04:35:17.182Z,22.65
2022-12-11T04:37:45.857Z,20.55
2022-12-11T04:40:16.440Z,23.58
2022-12-11T04:42:45.074Z,22.10
2022-12-11T04:45:13.852Z,19.08
2022-12-11T04:47:42.631Z,19.90
2022-12-11T04:50:12.340Z,19.27
2022-12-11T04:52:40.814Z,23.48
2022-12-11T04:55:09.710Z,16.80
2022-12-11T04:57:38.189Z,22.27
2022-12-11T05:00:08.068Z,19.80
2022-12-11T05:02:37.768Z,22.75
2022-12-11T05:05:10.322Z,16.38
2022-12-11T05:07:39.002Z,22.80
2022-12-11T05:10:07.612Z,22.05
2022-12-11T05:12:36.238Z,22.60
2022-12-11T05:15:04.888Z,19.88
2022-12-11T05:17:33.922Z,20.58
2022-12-11T05:20:01.739Z,22.95
2022-12-11T05:22:32.080Z,21.45
2022-12-11T05:24:59.818Z,25.13
2022-12-11T05:27:28.162Z,23.23
2022-12-11T05:29:59.366Z,23.98
2022-12-11T08:43:34.994Z,14.02
2022-12-11T08:46:03.276Z,15.50
2022-12-11T08:48:31.610Z,14.43
2022-12-11T08:51:02.106Z,13.68
2022-12-11T08:53:30.853Z,14.40
2022-12-11T08:56:13.466Z,14.85
2022-12-11T08:58:41.814Z,13.57
2022-12-11T09:01:12.796Z,13.27
2022-12-11T09:03:41.176Z,15.38
2022-12-11T09:06:15.055Z,11.73
2022-12-11T09:08:51.666Z,10.85
2022-12-11T09:11:26.298Z,17.20
2022-12-11T09:13:54.941Z,11.07
2022-12-11T09:16:25.554Z,17.83
2022-12-11T09:18:55.441Z,13.10
2022-12-11T09:21:26.094Z,10.25
2022-12-11T09:23:55.891Z,13.38
2022-12-11T09:26:24.672Z,9.57
2022-12-11T09:28:53.906Z,13.40
2022-12-11T09:31:30.850Z,13.20
2022-12-11T09:34:01.186Z,15.90
2022-12-11T09:36:30.104Z,14.77
2022-12-11T09:39:02.581Z,15.07
2022-12-11T09:42:11.804Z,14.38
2022-12-11T09:44:50.903Z,14.50
2022-12-11T09:47:36.424Z,11.05
2022-12-11T09:50:19.104Z,17.15
2022-12-11T09:52:47.246Z,12.25
2022-12-11T09:55:24.444Z,12.93
2022-12-11T09:58:23.774Z,12.95
2022-12-11T10:01:07.049Z,16.02
2022-12-11T10:03:44.906Z,11.50
2022-12-11T10:06:22.218Z,7.18
2022-12-11T10:09:11.650Z,16.50
2022-12-11T10:12:30.653Z,16.02
2022-12-11T10:15:11.176Z,17.92
2022-12-11T10:17:40.268Z,14.38
2022-12-11T10:20:17.449Z,6.22
2022-12-11T10:22:46.828Z,17.38
2022-12-11T10:25:25.779Z,15.00
2022-12-11T10:27:54.071Z,17.60
2022-12-11T10:30:24.720Z,29.83
2022-12-11T10:33:17.242Z,20.70
2022-12-11T10:35:54.262Z,11.18
2022-12-11T10:38:31.323Z,12.13
2022-12-11T10:41:02.307Z,12.80
2022-12-11T10:43:46.480Z,11.88
2022-12-11T10:46:18.231Z,10.05
2022-12-11T10:48:53.734Z,10.27
2022-12-11T10:51:24.667Z,12.60
2022-12-11T10:53:54.442Z,18.50
2022-12-11T10:56:28.876Z,14.00
2022-12-11T10:58:58.478Z,13.70
2022-12-11T11:01:30.032Z,11.90
2022-12-11T11:04:20.390Z,13.93
2022-12-11T11:06:49.970Z,12.60
2022-12-11T11:09:43.587Z,9.32
2022-12-11T11:12:24.825Z,10.85
2022-12-11T11:15:08.527Z,12.57
2022-12-11T11:17:54.228Z,10.40
2022-12-11T11:20:29.699Z,10.55
2022-12-11T11:23:01.451Z,11.50
2022-12-11T11:25:31.962Z,10.32
2022-12-11T11:28:05.915Z,12.40
2022-12-11T11:30:42.170Z,9.45
2022-12-11T11:33:18.986Z,9.65
2022-12-11T11:35:56.340Z,14.43
2022-12-11T11:38:38.075Z,13.55
2022-12-11T11:41:24.413Z,14.38
2022-12-11T11:43:56.072Z,17.15
2022-12-11T11:46:32.635Z,15.35
2022-12-11T11:49:11.226Z,11.65
2022-12-11T11:51:40.396Z,12.75
2022-12-11T11:54:36.058Z,14.63
2022-12-11T11:57:14.650Z,14.02
2022-12-11T11:59:52.757Z,13.50
2022-12-11T12:02:20.948Z,15.07
2022-12-11T12:04:53.490Z,14.85
2022-12-11T12:07:42.975Z,13.47
2022-12-11T12:10:19.717Z,9.50
2022-12-11T12:13:23.887Z,10.65
2022-12-11T12:15:59.448Z,13.95
2022-12-11T12:18:52.469Z,11.98
2022-12-11T12:21:32.411Z,14.98
2022-12-11T12:24:29.419Z,12.77
2022-12-11T12:27:50.595Z,9.18
2022-12-11T12:30:16.123Z,10.73
2022-12-11T12:33:08.012Z,11.60
2022-12-11T12:35:38.283Z,7.97
2022-12-11T12:38:48.181Z,8.75
2022-12-11T12:41:34.275Z,12.35
2022-12-11T12:44:22.181Z,6.93
2022-12-11T12:47:10.133Z,11.98
2022-12-11T12:49:41.306Z,11.88
2022-12-11T12:52:24.714Z,13.75
2022-12-11T12:55:15.250Z,11.40
2022-12-11T12:57:47.727Z,11.50
2022-12-11T13:00:37.646Z,11.35
2022-12-11T13:03:32.789Z,12.75
2022-12-11T13:06:09.900Z,11.55
2022-12-11T13:08:50.979Z,12.90
2022-12-11T13:11:21.333Z,9.43
2022-12-11T13:14:10.672Z,9.65
2022-12-11T13:16:44.420Z,11.98
2022-12-11T13:19:31.076Z,14.45
2022-12-11T13:22:15.127Z,14.90
2022-12-11T13:24:56.009Z,14.35
2022-12-11T13:27:26.996Z,29.33
2022-12-11T13:30:16.404Z,11.73
2022-12-11T13:33:09.424Z,11.55
2022-12-11T13:35:37.697Z,16.45
2022-12-11T13:38:18.127Z,10.48
2022-12-11T13:40:53.746Z,10.88
2022-12-11T13:43:30.528Z,8.48
2022-12-11T13:46:03.061Z,11.10
2022-12-11T13:48:38.762Z,13.30
2022-12-11T13:51:07.003Z,15.43
2022-12-11T13:53:35.387Z,8.02
2022-12-11T13:56:06.356Z,12.48
2022-12-11T13:58:38.507Z,12.05
2022-12-11T14:01:18.006Z,12.50
2022-12-11T14:03:56.848Z,11.70
2022-12-11T14:06:26.131Z,12.38
2022-12-11T14:08:56.576Z,13.90
2022-12-11T14:11:29.826Z,12.43
2022-12-11T14:14:00.438Z,13.68
2022-12-11T14:16:29.209Z,13.68
2022-12-11T14:19:04.504Z,14.52
2022-12-11T14:21:32.395Z,14.20
2022-12-11T14:24:06.820Z,15.23
2022-12-11T14:26:38.716Z,14.70
2022-12-11T14:29:07.357Z,9.65
2022-12-11T14:31:42.102Z,12.38
2022-12-11T14:34:18.497Z,13.90
2022-12-11T14:36:47.278Z,13.45
2022-12-11T14:39:23.060Z,18.50
2022-12-11T14:41:54.404Z,13.75
2022-12-11T14:44:24.766Z,12.07
2022-12-11T14:46:58.051Z,15.75
2022-12-11T14:49:48.308Z,12.98
2022-12-11T14:52:20.235Z,17.05
2022-12-11T14:54:53.765Z,14.63
2022-12-11T14:57:27.305Z,17.80
2022-12-11T14:59:57.031Z,14.35
2022-12-11T15:02:28.379Z,16.45
2022-12-11T15:05:20.283Z,9.77
2022-12-11T15:07:56.899Z,12.25
2022-12-11T15:10:57.534Z,15.35
2022-12-11T15:13:25.363Z,15.70
2022-12-11T15:15:55.441Z,16.92
2022-12-11T15:18:31.431Z,16.02
2022-12-11T15:21:09.919Z,15.48
2022-12-11T15:23:58.600Z,15.63
2022-12-11T15:26:38.157Z,11.18
2022-12-11T15:29:23.387Z,11.02
2022-12-11T15:32:14.164Z,9.88
2022-12-11T15:34:50.409Z,12.90
2022-12-11T15:37:27.456Z,12.38
2022-12-11T15:39:57.740Z,11.45
2022-12-11T15:42:39.249Z,10.38
2022-12-11T15:45:11.866Z,11.52
2022-12-11T15:47:40.495Z,10.15
2022-12-11T15:50:16.370Z,10.02
2022-12-11T15:52:45.763Z,10.65
2022-12-11T15:55:14.501Z,11.65
2022-12-11T15:57:48.285Z,8.85
2022-12-11T16:00:18.901Z,8.00
2022-12-11T16:02:47.567Z,11.40
2022-12-11T16:05:16.739Z,11.02
2022-12-11T16:07:45.520Z,11.32
2022-12-11T16:10:17.501Z,13.25
2022-12-11T16:12:46.227Z,13.05
2022-12-11T16:15:22.880Z,15.07
2022-12-11T16:18:03.341Z,15.25
2022-12-11T16:20:32.044Z,14.10
2022-12-11T16:23:00.810Z,14.50
2022-12-11T16:25:28.783Z,11.45
2022-12-11T16:27:59.224Z,12.63
2022-12-11T16:30:28.421Z,12.98
2022-12-11T16:32:57.049Z,11.82
2022-12-11T16:35:25.175Z,12.73
2022-12-11T16:37:54.040Z,13.43
2022-12-11T16:40:23.584Z,16.90
2022-12-11T16:42:52.407Z,15.38
2022-12-11T16:45:22.989Z,14.40
2022-12-11T16:47:51.259Z,14.10
2022-12-11T16:50:19.783Z,13.43
2022-12-11T16:52:48.433Z,12.38
2022-12-11T16:55:16.408Z,14.38
2022-12-11T16:57:44.742Z,13.68
2022-12-11T17:00:13.343Z,13.20
2022-12-11T17:02:41.860Z,13.25
2022-12-11T17:05:10.441Z,14.60
2022-12-11T17:07:41.469Z,14.63
2022-12-11T17:10:10.361Z,16.10
2022-12-11T17:12:39.244Z,14.57
2022-12-11T17:15:07.917Z,14.73
2022-12-11T17:17:36.513Z,17.27
2022-12-11T17:20:05.279Z,15.90
2022-12-11T17:22:33.933Z,15.63
2022-12-11T17:25:01.901Z,13.40
2022-12-11T17:27:30.632Z,11.38
2022-12-11T17:29:58.934Z,14.85
2022-12-11T17:32:27.071Z,16.15
2022-12-11T17:34:55.410Z,12.85
2022-12-11T17:37:23.835Z,12.38
2022-12-11T17:39:52.133Z,11.82
2022-12-11T17:42:20.535Z,14.73
2022-12-11T17:44:48.281Z,12.85
2022-12-11T17:47:16.187Z,14.18
2022-12-11T17:49:44.254Z,12.10
2022-12-11T17:52:12.907Z,14.23
2022-12-11T17:54:40.841Z,15.63
2022-12-11T17:57:09.391Z,13.80
2022-12-11T17:59:37.265Z,20.60
2022-12-11T18:02:05.192Z,40.40
2022-12-11T18:04:33.258Z,25.63
2022-12-11T18:07:01.510Z,12.52
2022-12-11T18:09:30.718Z,16.35
2022-12-11T18:11:59.807Z,13.50
2022-12-11T18:14:28.581Z,18.60
2022-12-11T18:16:56.575Z,18.02
2022-12-11T18:19:25.745Z,18.23
2022-12-11T18:21:55.080Z,19.25
2022-12-11T18:24:26.371Z,17.25
2022-12-11T18:26:55.014Z,18.80
2022-12-11T18:29:22.928Z,17.52
2022-12-11T18:31:51.659Z,13.95
2022-12-11T18:34:19.560Z,15.32
2022-12-11T18:36:48.080Z,15.07
2022-12-11T18:39:16.088Z,14.73
2022-12-11T18:41:50.215Z,14.93
2022-12-11T18:44:26.188Z,15.20
2022-12-11T18:46:54.748Z,15.90
2022-12-11T18:49:23.366Z,14.70
2022-12-11T18:51:51.214Z,16.38
2022-12-11T18:54:19.317Z,16.30
2022-12-11T18:56:47.512Z,18.08
2022-12-11T18:59:15.502Z,17.60
2022-12-11T19:01:44.105Z,18.17
2022-12-11T19:04:12.191Z,20.52
2022-12-11T19:06:40.547Z,23.42
2022-12-11T19:09:09.188Z,21.05
2022-12-11T19:11:40.646Z,15.27
2022-12-11T19:14:10.024Z,20.63
2022-12-11T19:16:42.045Z,16.25
2022-12-11T19:19:14.499Z,17.55
2022-12-11T19:24:15.117Z,15.85
2022-12-11T19:26:44.801Z,15.95
2022-12-11T19:29:21.150Z,16.58
2022-12-11T19:31:49.621Z,18.85
2022-12-11T19:34:18.036Z,14.77
2022-12-11T19:36:46.516Z,16.80
2022-12-11T19:39:15.154Z,16.42
2022-12-11T19:41:43.845Z,15.90
2022-12-11T19:44:12.537Z,17.00
2022-12-11T19:46:41.109Z,15.30
2022-12-11T19:49:11.624Z,15.30
2022-12-11T19:51:41.463Z,15.80
2022-12-11T19:54:13.251Z,16.88
2022-12-11T19:56:41.788Z,14.05
2022-12-11T19:59:14.415Z,16.63
2022-12-11T20:01:44.240Z,15.15
2022-12-11T20:04:14.837Z,15.07
2022-12-11T20:06:45.393Z,16.58
2022-12-11T20:09:15.098Z,16.63
2022-12-11T20:11:45.481Z,14.93
2022-12-11T20:14:23.683Z,14.73
2022-12-11T20:17:10.998Z,15.13
2022-12-11T20:19:42.783Z,14.45
2022-12-11T20:22:11.681Z,14.70
2022-12-11T20:24:40.029Z,14.98
2022-12-11T20:27:10.457Z,13.32
2022-12-11T20:29:39.232Z,14.43
2022-12-11T20:32:07.836Z,10.65
2022-12-11T20:34:36.071Z,10.85
2022-12-11T20:37:04.344Z,11.82
2022-12-11T20:39:32.699Z,11.45
2022-12-11T20:42:05.341Z,11.75
2022-12-11T20:44:33.485Z,12.13
2022-12-11T20:47:02.459Z,11.50
2022-12-11T20:49:30.661Z,11.82
2022-12-11T20:52:00.243Z,12.23
2022-12-11T20:54:28.140Z,12.80
2022-12-11T20:56:57.159Z,11.55
2022-12-11T20:59:26.406Z,12.48
2022-12-11T21:01:55.987Z,14.38
2022-12-11T21:04:24.562Z,12.68
2022-12-11T21:06:55.590Z,13.07
2022-12-11T21:09:26.857Z,12.73
2022-12-11T21:11:58.463Z,13.05
2022-12-11T21:14:26.500Z,13.15
2022-12-11T21:16:55.603Z,14.70
2022-12-11T21:19:24.170Z,13.30
2022-12-11T21:21:52.943Z,13.45
2022-12-11T21:24:26.556Z,13.55
2022-12-11T21:26:57.978Z,14.10
2022-12-11T21:29:27.455Z,13.65
2022-12-11T21:31:56.305Z,16.60
2022-12-11T21:34:25.778Z,15.00
2022-12-11T21:36:57.200Z,16.27
2022-12-11T21:39:26.820Z,16.95
2022-12-11T21:41:55.364Z,16.65
2022-12-11T21:47:11.428Z,17.60
2022-12-11T21:49:39.221Z,17.27
2022-12-11T21:52:08.864Z,15.75
2022-12-11T21:54:39.180Z,16.83
2022-12-11T21:57:06.900Z,16.13
2022-12-11T21:59:36.464Z,16.08
2022-12-11T22:02:04.770Z,16.30
2022-12-11T22:04:34.040Z,17.08
2022-12-11T22:07:01.742Z,17.45
2022-12-11T22:09:30.208Z,15.90
2022-12-11T22:11:59.018Z,16.00
2022-12-11T22:14:27.620Z,16.52
2022-12-11T22:16:55.793Z,16.58
2022-12-11T22:19:29.092Z,17.45
2022-12-11T22:21:59.989Z,16.15
2022-12-11T22:24:30.253Z,16.92
2022-12-11T22:26:59.990Z,17.75
2022-12-11T22:29:28.629Z,16.98
2022-12-11T22:31:56.846Z,17.88
2022-12-11T22:34:25.140Z,16.65
2022-12-11T22:36:53.250Z,16.48
2022-12-11T22:39:21.546Z,15.88
2022-12-11T22:41:49.588Z,16.70
2022-12-11T22:44:20.217Z,16.02
2022-12-11T22:46:50.686Z,16.90
2022-12-11T22:49:20.603Z,16.65
2022-12-11T22:51:50.033Z,15.25
2022-12-11T22:54:18.298Z,16.67
2022-12-11T22:56:46.265Z,16.23
2022-12-11T22:59:14.248Z,15.82
2022-12-11T23:01:42.554Z,16.67
2022-12-11T23:04:11.198Z,15.73
2022-12-11T23:06:39.140Z,14.88
2022-12-11T23:09:07.787Z,14.20
2022-12-11T23:11:38.030Z,17.60
2022-12-11T23:14:08.555Z,13.68
2022-12-11T23:16:37.256Z,16.13
2022-12-11T23:19:05.546Z,15.95
2022-12-11T23:21:34.125Z,16.83
2022-12-11T23:24:02.419Z,15.95
2022-12-11T23:26:31.074Z,16.25
2022-12-11T23:28:59.709Z,17.48
2022-12-11T23:31:28.368Z,16.83
2022-12-11T23:33:57.193Z,16.75
2022-12-11T23:36:26.609Z,17.35
2022-12-11T23:38:55.685Z,17.35
2022-12-11T23:41:24.106Z,17.02
2022-12-11T23:43:52.659Z,16.77
2022-12-11T23:46:23.184Z,16.13
2022-12-11T23:48:52.674Z,19.02
2022-12-11T23:51:23.216Z,16.00
2022-12-11T23:53:52.383Z,15.55
2022-12-11T23:56:26.033Z,16.30
2022-12-11T23:58:55.629Z,16.48
